Lutherville Timonium, Maryland
Current Conditions -  °F | °C
As of 11:50 AM on Thursday 30 Oct 2014 (Local Time) from KMTN Reporting Station
Scattered Clouds Scattered Clouds  
Wind Chill: 57°   Ceiling: Unl
Heat Index: 57°   Visibility: 10mi
Dew Point: 45°   Wind: 14mph
Humidity: 63%   Direction: 280°W
Pressure: 30.07"   Gusts: NA
Location:  39.4211°N, 76.6266°W
Report Text: KMTN 301550Z 28012KT 10SM SCT060 14/07 A3007
Loading
Personal Weather Stations






























Interactive Weather Map
Tropical Storm Tracking
New forecast layout! Learn more

10-Day Weather Forecast

Advertisements
Track Severe Weather on mobile